Weather reports worldwide

Advertisment
Puebla De D. Rodrigo, Spain (8271): temperature & dewpoint: 17.04.2019 19:00:00 - 23.04.2019 19:00:00 (CEST)Puebla De D. Rodrigo, Spain (8271): wind speed & gusts: 17.04.2019 19:00:00 - 23.04.2019 19:00:00 (CEST)Puebla De D. Rodrigo, Spain (8271): wind direction: 17.04.2019 19:00:00 - 23.04.2019 19:00:00 (CEST)Puebla De D. Rodrigo, Spain (8271): reduced air pressure: 17.04.2019 19:00:00 - 23.04.2019 19:00:00 (CEST)Puebla De D. Rodrigo, Spain (8271): precipitation: 17.04.2019 19:00:00 - 23.04.2019 19:00:00 (CEST)
Date & Time tt [°C] td [°C] ff [km/h] ff [kn] fx [km/h] fx [kn] dd ppp [hPa] rr [mm]
23.04.2019 19:00:00 - - - - - - - - -
23.04.2019 18:00:00 11,2 2,7 4 2 37 20 W 995,9 0,0
23.04.2019 17:00:00 13,4 0,4 14 7 44 24 WSW 994,8 0,0
23.04.2019 16:00:00 12,6 1,1 18 10 42 23 WSW 994,9 0,0
23.04.2019 15:00:00 14,2 -0,3 13 7 37 20 WSW 994,2 0,0
23.04.2019 14:00:00 11,4 -0,5 16 9 34 19 SSW 994,6 -
23.04.2019 13:00:00 12,3 1,1 10 5 29 16 WSW 995,1 0,0
23.04.2019 12:00:00 9,6 1,5 5 3 26 14 WSW 995,7 0,0
23.04.2019 11:00:00 8,6 4,3 4 2 25 14 SW 994,9 0,0
23.04.2019 10:00:00 7,3 5,3 9 5 28 15 WSW 994,7 0,0
23.04.2019 09:00:00 7,4 6,7 0 0 14 8 WSW 994,0 0,7
23.04.2019 08:00:00 7,7 7,0 2 1 21 12 WSW 993,9 -
23.04.2019 07:00:00 8,4 7,4 4 2 26 14 W 993,0 1,9
23.04.2019 06:00:00 9,8 8,3 11 6 30 16 SSW 992,5 1,2
23.04.2019 05:00:00 10,6 9,0 2 1 17 9 S 992,8 0,3
23.04.2019 04:00:00 10,7 8,9 16 8 34 18 SSW 993,1 0,6
23.04.2019 03:00:00 12,6 3,0 16 8 25 14 S 993,5 0,0
23.04.2019 02:00:00 13,0 1,9 0 0 1 1 S 994,0 -
23.04.2019 01:00:00 13,7 0,4 0 0 9 5 N 994,0 0,0
23.04.2019 00:00:00 13,9 0,2 2 1 11 6 WSW 994,2 0,0
22.04.2019 23:00:00 14,7 -1,0 4 2 14 7 WSW 994,1 0,0
22.04.2019 22:00:00 15,1 -1,0 5 3 17 9 WSW 993,7 0,0
22.04.2019 21:00:00 16,7 -2,0 7 4 19 10 WSW 993,3 0,0
22.04.2019 20:00:00 17,9 -0,5 7 4 26 14 WSW 993,2 -
22.04.2019 19:00:00 19,1 0,2 9 5 27 14 WSW 992,9 0,0
22.04.2019 18:00:00 21,3 1,1 9 5 26 14 WSW 993,2 0,0
22.04.2019 17:00:00 20,7 1,1 12 7 31 17 SW 993,8 0,0
22.04.2019 16:00:00 19,0 0,6 4 2 24 13 WSW 995,1 0,0
22.04.2019 15:00:00 18,8 1,3 10 6 24 13 WSW 995,6 0,1
22.04.2019 14:00:00 18,5 1,1 2 1 20 11 W 996,5 -
22.04.2019 13:00:00 16,1 0,2 6 3 18 10 W 997,9 0,0
22.04.2019 12:00:00 15,7 0,6 0 0 - - SW 998,5 -
22.04.2019 11:00:00 12,6 6,8 0 0 0 0 N 999,6 0,0
22.04.2019 10:00:00 8,2 7,0 0 0 0 0 N 1000,7 0,0
22.04.2019 09:00:00 5,8 5,5 0 0 0 0 N 1001,0 0,0
22.04.2019 08:00:00 4,9 4,6 0 0 0 0 N 1001,1 -
22.04.2019 07:00:00 5,4 5,1 0 0 0 0 N 1000,8 0,0
22.04.2019 06:00:00 5,4 5,0 0 0 0 0 N 1001,1 0,0
22.04.2019 05:00:00 5,9 5,3 0 0 0 0 N 1001,5 0,0
22.04.2019 04:00:00 7,1 6,5 0 0 0 0 N 1002,1 0,0
22.04.2019 03:00:00 7,4 6,5 0 0 1 1 N 1002,5 0,0
22.04.2019 02:00:00 8,2 6,8 0 0 0 0 N 1002,9 -
22.04.2019 01:00:00 9,3 6,8 0 0 0 0 N 1003,4 0,0
22.04.2019 00:00:00 9,8 6,8 0 0 0 0 N 1003,7 0,0
21.04.2019 23:00:00 9,9 6,4 0 0 5 3 N 1003,7 0,0
21.04.2019 22:00:00 10,4 5,8 0 0 4 2 E 1003,3 0,0
21.04.2019 21:00:00 11,2 4,5 4 2 14 8 SE 1003,0 0,0
21.04.2019 20:00:00 12,9 2,7 1 1 13 7 ENE 1002,9 -
21.04.2019 19:00:00 13,2 2,1 6 3 16 9 E 1002,8 0,0
21.04.2019 18:00:00 13,1 1,1 11 6 18 10 ENE 1003,2 0,0
21.04.2019 17:00:00 13,3 1,1 2 1 19 10 NE 1003,5 0,0
21.04.2019 16:00:00 13,4 0,4 13 7 27 14 E 1003,9 0,0
21.04.2019 15:00:00 14,6 1,5 16 8 28 15 E 1003,6 0,0
21.04.2019 14:00:00 13,9 1,5 9 5 32 17 ENE 1004,2 -
21.04.2019 13:00:00 14,2 1,5 15 8 37 20 ENE 1004,7 0,0
21.04.2019 12:00:00 13,3 3,0 18 10 29 15 NE 1005,5 0,0
21.04.2019 11:00:00 11,9 3,6 8 5 27 15 NE 1005,8 0,0
21.04.2019 10:00:00 11,0 3,9 14 8 29 16 NE 1005,9 0,0
21.04.2019 09:00:00 9,7 3,6 5 3 23 13 NE 1006,6 0,0
21.04.2019 08:00:00 8,5 3,0 0 0 0 0 N 1007,4 -
21.04.2019 07:00:00 8,4 2,9 0 0 0 0 N 1007,6 0,0
21.04.2019 06:00:00 8,3 2,3 0 0 0 0 N 1007,9 0,0
21.04.2019 05:00:00 8,6 2,5 0 0 4 2 SSE 1008,4 0,0
21.04.2019 04:00:00 9,0 2,9 0 0 14 7 SSE 1008,7 0,0
21.04.2019 03:00:00 9,5 3,2 0 0 12 6 N 1009,5 0,0
21.04.2019 02:00:00 9,7 3,2 0 0 15 8 ENE 1010,4 -
21.04.2019 01:00:00 9,5 3,2 5 3 24 13 E 1010,9 0,0
21.04.2019 00:00:00 9,5 3,4 0 0 18 10 ESE 1011,7 0,0
20.04.2019 23:00:00 10,0 4,8 0 0 14 7 E 1011,7 0,0
20.04.2019 22:00:00 - - 0 0 25 14 E - 0,0
20.04.2019 21:00:00 9,4 7,0 1 0 22 12 ESE 1011,5 0,2
20.04.2019 20:00:00 9,7 7,7 0 0 15 8 ESE 1011,2 -
20.04.2019 19:00:00 10,0 8,0 6 3 29 16 E 1011,4 0,8
20.04.2019 18:00:00 10,3 7,8 1 1 18 10 ESE 1010,7 0,7
20.04.2019 17:00:00 12,2 7,7 1 0 19 11 ESE 1010,4 0,0
20.04.2019 16:00:00 11,9 8,1 0 0 16 9 N 1010,3 0,0
20.04.2019 15:00:00 11,2 8,4 1 0 11 6 ESE 1010,5 0,1
20.04.2019 14:00:00 10,6 8,7 0 0 0 0 N 1010,4 -
20.04.2019 13:00:00 10,1 8,5 0 0 17 9 N 1011,0 1,6
20.04.2019 12:00:00 9,9 7,8 0 0 0 0 N 1010,7 1,7
20.04.2019 11:00:00 10,1 7,6 0 0 0 0 N 1010,0 1,4
20.04.2019 10:00:00 10,0 6,8 0 0 10 5 N 1010,0 0,6
20.04.2019 09:00:00 9,7 7,0 0 0 1 1 N 1009,8 0,1
20.04.2019 08:00:00 8,9 8,1 0 0 0 0 N 1009,9 -
20.04.2019 07:00:00 8,8 7,6 0 0 14 7 N 1009,7 0,2
20.04.2019 06:00:00 8,8 7,8 0 0 0 0 N 1010,5 2,3
20.04.2019 05:00:00 8,7 7,4 0 0 1 0 N 1011,5 1,5
20.04.2019 04:00:00 9,6 5,9 0 0 0 0 N 1010,8 0,0
20.04.2019 03:00:00 7,7 6,1 0 0 0 0 N 1012,9 0,0
20.04.2019 02:00:00 8,0 5,6 0 0 0 0 N 1013,1 -
20.04.2019 01:00:00 8,0 5,6 0 0 0 0 N 1013,5 0,0
20.04.2019 00:00:00 8,4 5,1 0 0 16 9 N 1013,4 0,0
19.04.2019 23:00:00 8,2 4,6 1 0 16 8 E 1013,6 0,0
19.04.2019 22:00:00 9,0 4,6 0 0 18 10 SE 1012,9 0,0
19.04.2019 21:00:00 9,9 4,8 7 4 24 13 E 1011,4 0,0
19.04.2019 20:00:00 10,1 4,8 1 0 22 12 ENE 1011,1 -
19.04.2019 19:00:00 10,6 5,1 13 7 30 16 ENE 1010,4 0,0
19.04.2019 18:00:00 11,6 7,6 9 5 35 19 NE 1009,8 1,7
19.04.2019 17:00:00 12,8 6,5 3 2 25 14 NNE 1009,1 0,2
19.04.2019 16:00:00 14,8 4,8 0 0 8 4 ESE 1008,8 0,0
19.04.2019 15:00:00 14,1 4,1 0 0 8 4 N 1009,0 0,2
19.04.2019 14:00:00 11,8 7,1 2 1 11 6 ENE 1009,6 -
19.04.2019 13:00:00 14,5 5,8 0 0 0 0 N 1009,4 0,0
19.04.2019 12:00:00 12,6 7,0 0 0 0 0 N 1010,0 0,1
19.04.2019 11:00:00 10,4 8,5 0 0 0 0 N 1010,2 0,2
19.04.2019 10:00:00 9,3 8,1 0 0 0 0 N 1010,3 0,1
19.04.2019 09:00:00 9,0 7,7 0 0 0 0 N 1009,9 0,1
19.04.2019 08:00:00 8,7 8,0 0 0 0 0 N 1009,2 -
19.04.2019 07:00:00 8,8 8,0 0 0 0 0 N 1008,6 0,0
19.04.2019 06:00:00 8,5 7,7 0 0 0 0 N 1008,6 0,0
19.04.2019 05:00:00 8,5 7,6 0 0 0 0 SW 1008,7 0,0
19.04.2019 04:00:00 8,7 7,4 0 0 1 0 N 1008,6 0,0
19.04.2019 03:00:00 9,1 7,8 0 0 0 0 N 1008,6 0,0
19.04.2019 02:00:00 8,9 8,1 0 0 0 0 N 1008,8 -
19.04.2019 01:00:00 9,6 8,8 0 0 0 0 N 1008,7 0,1
19.04.2019 00:00:00 9,7 9,0 0 0 0 0 N 1008,6 0,0
18.04.2019 23:00:00 9,6 9,0 0 0 0 0 N 1008,5 0,0
18.04.2019 22:00:00 9,9 8,9 0 0 0 0 N 1007,9 0,1
18.04.2019 21:00:00 10,0 9,0 0 0 0 0 N 1007,2 0,4
18.04.2019 20:00:00 10,1 8,9 0 0 0 0 N 1006,9 -
18.04.2019 19:00:00 10,1 8,3 0 0 29 16 SW 1006,8 0,5
18.04.2019 18:00:00 11,3 2,9 15 8 24 13 SSW 1006,2 0,0
18.04.2019 17:00:00 15,3 1,5 5 3 21 11 NNE 1004,7 0,0
18.04.2019 16:00:00 16,6 2,9 5 3 21 11 NE 1004,9 0,1
18.04.2019 15:00:00 14,7 2,9 10 5 27 15 NNE 1005,5 0,0
18.04.2019 14:00:00 16,7 3,8 0 0 2 1 N 1005,3 -
18.04.2019 13:00:00 14,8 5,0 0 0 0 0 N 1006,7 0,0
18.04.2019 12:00:00 12,4 6,4 0 0 0 0 N 1007,6 0,0
18.04.2019 11:00:00 11,7 7,3 0 0 0 0 N 1008,1 0,0
18.04.2019 10:00:00 10,5 8,3 0 0 0 0 N 1007,6 0,0
18.04.2019 09:00:00 9,5 8,1 0 0 0 0 N 1008,4 0,0
18.04.2019 08:00:00 9,0 7,7 0 0 0 0 N 1008,0 -
18.04.2019 07:00:00 9,3 8,1 0 0 0 0 N 1007,3 0,0
18.04.2019 06:00:00 9,5 8,1 0 0 0 0 N 1007,2 0,0
18.04.2019 05:00:00 9,7 9,0 0 0 0 0 N 1007,5 0,0
18.04.2019 04:00:00 10,3 9,7 0 0 0 0 N 1007,9 0,0
18.04.2019 03:00:00 10,4 9,8 0 0 0 0 N 1008,6 0,0
18.04.2019 02:00:00 10,8 10,2 0 0 0 0 N 1008,7 -
18.04.2019 01:00:00 11,5 9,4 0 0 1 1 N 1008,7 0,1
18.04.2019 00:00:00 11,4 9,9 0 0 7 4 N 1008,9 0,4
17.04.2019 23:00:00 12,7 8,8 0 0 22 12 N 1008,4 0,0
17.04.2019 22:00:00 14,9 6,4 7 4 22 12 WSW 1006,5 0,0
17.04.2019 21:00:00 17,2 4,5 9 5 22 12 SW 1004,7 0,0
17.04.2019 20:00:00 18,1 3,9 6 4 23 12 SW 1004,4 -
17.04.2019 19:00:00 19,1 3,6 5 3 27 14 SW 1003,3 0,0

tt = temperature
td = dewpoint
ff = wind speed
fx = gusts
dd = wind direction
ppp = reduced air pressure
rr = precipitation

Next stations